sensor_id;sensor_type;location;lat;lon;timestamp;P1;durP1;ratioP1;P2;durP2;ratioP2
70806;SDS011;58882;52.170;5.386;2023-04-03T00:00:19;3.08;;;1.20;;
70806;SDS011;58882;52.170;5.386;2023-04-03T00:03:06;3.55;;;1.13;;
70806;SDS011;58882;52.170;5.386;2023-04-03T00:05:46;6.32;;;1.25;;
70806;SDS011;58882;52.170;5.386;2023-04-03T00:08:33;4.82;;;1.25;;
70806;SDS011;58882;52.170;5.386;2023-04-03T00:11:13;3.88;;;1.30;;
70806;SDS011;58882;52.170;5.386;2023-04-03T00:14:00;4.53;;;1.30;;
70806;SDS011;58882;52.170;5.386;2023-04-03T00:16:40;3.45;;;1.15;;
70806;SDS011;58882;52.170;5.386;2023-04-03T00:19:27;4.38;;;1.10;;
70806;SDS011;58882;52.170;5.386;2023-04-03T00:22:07;3.95;;;1.38;;
70806;SDS011;58882;52.170;5.386;2023-04-03T00:24:54;6.55;;;1.33;;
70806;SDS011;58882;52.170;5.386;2023-04-03T00:27:38;2.50;;;1.10;;
70806;SDS011;58882;52.170;5.386;2023-04-03T00:30:32;3.03;;;1.20;;
70806;SDS011;58882;52.170;5.386;2023-04-03T00:33:05;3.10;;;1.20;;
70806;SDS011;58882;52.170;5.386;2023-04-03T00:35:59;4.40;;;1.13;;
70806;SDS011;58882;52.170;5.386;2023-04-03T00:38:37;2.80;;;1.17;;
70806;SDS011;58882;52.170;5.386;2023-04-03T00:41:31;3.30;;;1.20;;
70806;SDS011;58882;52.170;5.386;2023-04-03T00:47:19;3.38;;;0.98;;
70806;SDS011;58882;52.170;5.386;2023-04-03T00:50:00;4.15;;;1.15;;
70806;SDS011;58882;52.170;5.386;2023-04-03T00:52:54;4.10;;;1.20;;
70806;SDS011;58882;52.170;5.386;2023-04-03T00:58:26;4.75;;;1.33;;
70806;SDS011;58882;52.170;5.386;2023-04-03T01:01:15;3.05;;;1.20;;
70806;SDS011;58882;52.170;5.386;2023-04-03T01:04:24;4.00;;;1.30;;
70806;SDS011;58882;52.170;5.386;2023-04-03T01:07:12;2.63;;;1.20;;
70806;SDS011;58882;52.170;5.386;2023-04-03T01:10:26;4.72;;;1.42;;
70806;SDS011;58882;52.170;5.386;2023-04-03T01:13:25;3.53;;;1.10;;
70806;SDS011;58882;52.170;5.386;2023-04-03T01:16:04;3.67;;;1.30;;
70806;SDS011;58882;52.170;5.386;2023-04-03T01:18:59;4.60;;;1.30;;
70806;SDS011;58882;52.170;5.386;2023-04-03T01:24:47;5.45;;;1.30;;
70806;SDS011;58882;52.170;5.386;2023-04-03T01:27:20;4.18;;;1.35;;
70806;SDS011;58882;52.170;5.386;2023-04-03T01:30:14;4.10;;;1.38;;
70806;SDS011;58882;52.170;5.386;2023-04-03T01:32:51;5.18;;;1.45;;
70806;SDS011;58882;52.170;5.386;2023-04-03T01:35:45;4.57;;;1.27;;
70806;SDS011;58882;52.170;5.386;2023-04-03T01:38:26;4.43;;;1.17;;
70806;SDS011;58882;52.170;5.386;2023-04-03T01:41:13;4.05;;;1.48;;
70806;SDS011;58882;52.170;5.386;2023-04-03T01:43:59;3.78;;;1.30;;
70806;SDS011;58882;52.170;5.386;2023-04-03T01:46:54;5.45;;;1.50;;
70806;SDS011;58882;52.170;5.386;2023-04-03T01:49:35;3.13;;;1.20;;
70806;SDS011;58882;52.170;5.386;2023-04-03T01:52:22;5.30;;;1.50;;
70806;SDS011;58882;52.170;5.386;2023-04-03T01:55:03;3.38;;;1.30;;
70806;SDS011;58882;52.170;5.386;2023-04-03T01:57:51;4.05;;;1.20;;
70806;SDS011;58882;52.170;5.386;2023-04-03T02:00:24;4.35;;;1.30;;
70806;SDS011;58882;52.170;5.386;2023-04-03T02:03:18;4.97;;;1.48;;
70806;SDS011;58882;52.170;5.386;2023-04-03T02:05:58;4.32;;;1.40;;
70806;SDS011;58882;52.170;5.386;2023-04-03T02:08:46;7.07;;;1.65;;
70806;SDS011;58882;52.170;5.386;2023-04-03T02:11:40;6.63;;;2.25;;
70806;SDS011;58882;52.170;5.386;2023-04-03T02:14:36;6.25;;;1.65;;
70806;SDS011;58882;52.170;5.386;2023-04-03T02:17:16;4.97;;;1.27;;
70806;SDS011;58882;52.170;5.386;2023-04-03T02:20:03;5.57;;;1.45;;
70806;SDS011;58882;52.170;5.386;2023-04-03T02:22:44;8.90;;;1.60;;
70806;SDS011;58882;52.170;5.386;2023-04-03T02:25:31;3.08;;;1.10;;
70806;SDS011;58882;52.170;5.386;2023-04-03T02:28:12;2.97;;;1.23;;
70806;SDS011;58882;52.170;5.386;2023-04-03T02:30:59;3.97;;;1.38;;
70806;SDS011;58882;52.170;5.386;2023-04-03T02:33:41;3.65;;;1.25;;
70806;SDS011;58882;52.170;5.386;2023-04-03T02:36:28;5.50;;;1.48;;
70806;SDS011;58882;52.170;5.386;2023-04-03T02:39:09;4.55;;;1.30;;
70806;SDS011;58882;52.170;5.386;2023-04-03T02:41:57;5.95;;;1.63;;
70806;SDS011;58882;52.170;5.386;2023-04-03T02:44:37;6.18;;;1.63;;
70806;SDS011;58882;52.170;5.386;2023-04-03T02:50:11;5.15;;;1.40;;
70806;SDS011;58882;52.170;5.386;2023-04-03T02:52:58;5.72;;;1.40;;
70806;SDS011;58882;52.170;5.386;2023-04-03T02:55:38;5.45;;;1.75;;
70806;SDS011;58882;52.170;5.386;2023-04-03T02:58:26;4.43;;;1.50;;
70806;SDS011;58882;52.170;5.386;2023-04-03T03:01:07;5.07;;;1.58;;
70806;SDS011;58882;52.170;5.386;2023-04-03T03:03:54;4.10;;;1.58;;
70806;SDS011;58882;52.170;5.386;2023-04-03T03:06:48;5.18;;;1.58;;
70806;SDS011;58882;52.170;5.386;2023-04-03T03:09:28;7.18;;;1.70;;
70806;SDS011;58882;52.170;5.386;2023-04-03T03:12:23;5.50;;;1.40;;
70806;SDS011;58882;52.170;5.386;2023-04-03T03:15:06;3.70;;;1.40;;
70806;SDS011;58882;52.170;5.386;2023-04-03T03:17:54;5.70;;;1.70;;
70806;SDS011;58882;52.170;5.386;2023-04-03T03:20:34;7.47;;;1.30;;
70806;SDS011;58882;52.170;5.386;2023-04-03T03:23:21;7.70;;;1.67;;
70806;SDS011;58882;52.170;5.386;2023-04-03T03:26:05;5.78;;;1.55;;
70806;SDS011;58882;52.170;5.386;2023-04-03T03:28:54;7.40;;;1.70;;
70806;SDS011;58882;52.170;5.386;2023-04-03T03:31:34;5.05;;;1.45;;
70806;SDS011;58882;52.170;5.386;2023-04-03T03:34:28;4.25;;;1.40;;
70806;SDS011;58882;52.170;5.386;2023-04-03T03:37:02;5.72;;;1.40;;
70806;SDS011;58882;52.170;5.386;2023-04-03T03:39:56;5.00;;;1.33;;
70806;SDS011;58882;52.170;5.386;2023-04-03T03:42:36;4.78;;;1.40;;
70806;SDS011;58882;52.170;5.386;2023-04-03T03:45:23;4.00;;;1.40;;
70806;SDS011;58882;52.170;5.386;2023-04-03T03:48:03;5.70;;;1.30;;
70806;SDS011;58882;52.170;5.386;2023-04-03T03:50:57;4.75;;;1.35;;
70806;SDS011;58882;52.170;5.386;2023-04-03T03:53:38;5.88;;;1.55;;
70806;SDS011;58882;52.170;5.386;2023-04-03T03:56:26;4.00;;;1.40;;
70806;SDS011;58882;52.170;5.386;2023-04-03T03:59:06;4.18;;;1.63;;
70806;SDS011;58882;52.170;5.386;2023-04-03T04:01:53;4.50;;;1.40;;
70806;SDS011;58882;52.170;5.386;2023-04-03T04:04:33;4.82;;;1.30;;
70806;SDS011;58882;52.170;5.386;2023-04-03T04:07:20;5.03;;;1.40;;
70806;SDS011;58882;52.170;5.386;2023-04-03T04:10:01;5.78;;;1.58;;
70806;SDS011;58882;52.170;5.386;2023-04-03T04:12:49;6.05;;;1.90;;
70806;SDS011;58882;52.170;5.386;2023-04-03T04:15:31;6.25;;;1.80;;
70806;SDS011;58882;52.170;5.386;2023-04-03T04:18:19;4.53;;;1.55;;
70806;SDS011;58882;52.170;5.386;2023-04-03T04:21:01;6.07;;;1.60;;
70806;SDS011;58882;52.170;5.386;2023-04-03T04:23:49;4.45;;;1.58;;
70806;SDS011;58882;52.170;5.386;2023-04-03T04:26:29;5.28;;;1.55;;
70806;SDS011;58882;52.170;5.386;2023-04-03T04:29:24;6.00;;;1.83;;
70806;SDS011;58882;52.170;5.386;2023-04-03T04:32:08;4.75;;;1.67;;
70806;SDS011;58882;52.170;5.386;2023-04-03T04:34:55;5.60;;;1.52;;
70806;SDS011;58882;52.170;5.386;2023-04-03T04:37:39;8.15;;;2.10;;
70806;SDS011;58882;52.170;5.386;2023-04-03T04:40:26;6.35;;;1.67;;
70806;SDS011;58882;52.170;5.386;2023-04-03T04:43:06;4.53;;;1.70;;
70806;SDS011;58882;52.170;5.386;2023-04-03T04:46:03;5.10;;;1.50;;
70806;SDS011;58882;52.170;5.386;2023-04-03T04:48:52;6.72;;;1.73;;
70806;SDS011;58882;52.170;5.386;2023-04-03T04:51:39;6.15;;;1.80;;
70806;SDS011;58882;52.170;5.386;2023-04-03T04:54:28;4.05;;;1.60;;
70806;SDS011;58882;52.170;5.386;2023-04-03T04:57:22;7.60;;;1.80;;
70806;SDS011;58882;52.170;5.386;2023-04-03T05:00:02;5.00;;;1.63;;
70806;SDS011;58882;52.170;5.386;2023-04-03T05:02:50;6.65;;;1.77;;
70806;SDS011;58882;52.170;5.386;2023-04-03T05:05:23;5.93;;;1.52;;
70806;SDS011;58882;52.170;5.386;2023-04-03T05:08:17;8.13;;;1.73;;
70806;SDS011;58882;52.170;5.386;2023-04-03T05:10:50;8.30;;;1.50;;
70806;SDS011;58882;52.170;5.386;2023-04-03T05:13:46;6.35;;;1.73;;
70806;SDS011;58882;52.170;5.386;2023-04-03T05:16:27;6.97;;;1.80;;
70806;SDS011;58882;52.170;5.386;2023-04-03T05:19:14;7.40;;;1.73;;
70806;SDS011;58882;52.170;5.386;2023-04-03T05:21:54;4.85;;;1.65;;
70806;SDS011;58882;52.170;5.386;2023-04-03T05:24:42;7.28;;;1.67;;
70806;SDS011;58882;52.170;5.386;2023-04-03T05:27:22;10.30;;;2.05;;
70806;SDS011;58882;52.170;5.386;2023-04-03T05:30:09;6.53;;;1.80;;
70806;SDS011;58882;52.170;5.386;2023-04-03T05:32:50;4.45;;;1.60;;
70806;SDS011;58882;52.170;5.386;2023-04-03T05:35:52;6.18;;;1.80;;
70806;SDS011;58882;52.170;5.386;2023-04-03T05:38:27;7.68;;;1.60;;
70806;SDS011;58882;52.170;5.386;2023-04-03T05:41:21;5.45;;;1.50;;
70806;SDS011;58882;52.170;5.386;2023-04-03T05:44:02;3.30;;;1.40;;
70806;SDS011;58882;52.170;5.386;2023-04-03T05:46:57;6.43;;;1.70;;
70806;SDS011;58882;52.170;5.386;2023-04-03T05:49:37;5.53;;;1.60;;
70806;SDS011;58882;52.170;5.386;2023-04-03T05:52:31;5.50;;;1.65;;
70806;SDS011;58882;52.170;5.386;2023-04-03T05:55:16;6.13;;;1.60;;
70806;SDS011;58882;52.170;5.386;2023-04-03T05:58:03;4.18;;;1.60;;
70806;SDS011;58882;52.170;5.386;2023-04-03T06:00:45;6.90;;;1.88;;
70806;SDS011;58882;52.170;5.386;2023-04-03T06:03:39;6.68;;;2.00;;
70806;SDS011;58882;52.170;5.386;2023-04-03T06:06:19;5.18;;;1.60;;
70806;SDS011;58882;52.170;5.386;2023-04-03T06:09:06;4.65;;;1.58;;
70806;SDS011;58882;52.170;5.386;2023-04-03T06:11:39;5.18;;;1.77;;
70806;SDS011;58882;52.170;5.386;2023-04-03T06:14:34;5.10;;;1.60;;
70806;SDS011;58882;52.170;5.386;2023-04-03T06:17:15;5.60;;;1.77;;
70806;SDS011;58882;52.170;5.386;2023-04-03T06:20:02;6.55;;;1.85;;
70806;SDS011;58882;52.170;5.386;2023-04-03T06:22:43;8.00;;;1.70;;
70806;SDS011;58882;52.170;5.386;2023-04-03T06:25:37;4.20;;;1.25;;
70806;SDS011;58882;52.170;5.386;2023-04-03T06:28:10;5.28;;;1.45;;
70806;SDS011;58882;52.170;5.386;2023-04-03T06:31:06;6.57;;;1.30;;
70806;SDS011;58882;52.170;5.386;2023-04-03T06:33:39;6.32;;;1.42;;
70806;SDS011;58882;52.170;5.386;2023-04-03T06:36:33;6.00;;;1.60;;
70806;SDS011;58882;52.170;5.386;2023-04-03T06:39:14;5.55;;;1.38;;
70806;SDS011;58882;52.170;5.386;2023-04-03T06:42:03;7.00;;;1.50;;
70806;SDS011;58882;52.170;5.386;2023-04-03T06:44:58;5.95;;;1.70;;
70806;SDS011;58882;52.170;5.386;2023-04-03T06:47:54;4.05;;;1.33;;
70806;SDS011;58882;52.170;5.386;2023-04-03T06:53:22;5.90;;;1.27;;
70806;SDS011;58882;52.170;5.386;2023-04-03T06:55:55;5.53;;;1.48;;
70806;SDS011;58882;52.170;5.386;2023-04-03T06:58:49;5.82;;;1.70;;
70806;SDS011;58882;52.170;5.386;2023-04-03T07:01:31;6.55;;;1.90;;
70806;SDS011;58882;52.170;5.386;2023-04-03T07:04:18;5.60;;;1.40;;
70806;SDS011;58882;52.170;5.386;2023-04-03T07:06:59;4.45;;;1.60;;
70806;SDS011;58882;52.170;5.386;2023-04-03T07:09:46;6.78;;;1.63;;
70806;SDS011;58882;52.170;5.386;2023-04-03T07:12:34;4.45;;;1.58;;
70806;SDS011;58882;52.170;5.386;2023-04-03T07:15:28;6.10;;;1.60;;
70806;SDS011;58882;52.170;5.386;2023-04-03T07:20:56;4.05;;;1.50;;
70806;SDS011;58882;52.170;5.386;2023-04-03T07:26:23;5.53;;;1.52;;
70806;SDS011;58882;52.170;5.386;2023-04-03T07:31:50;6.70;;;1.58;;
70806;SDS011;58882;52.170;5.386;2023-04-03T07:37:17;4.10;;;1.30;;
70806;SDS011;58882;52.170;5.386;2023-04-03T07:39:57;4.85;;;1.40;;
70806;SDS011;58882;52.170;5.386;2023-04-03T07:42:44;4.97;;;1.50;;
70806;SDS011;58882;52.170;5.386;2023-04-03T07:45:24;5.70;;;1.73;;
70806;SDS011;58882;52.170;5.386;2023-04-03T07:48:11;5.43;;;1.80;;
70806;SDS011;58882;52.170;5.386;2023-04-03T07:50:51;4.82;;;1.55;;
70806;SDS011;58882;52.170;5.386;2023-04-03T07:53:38;5.22;;;1.42;;
70806;SDS011;58882;52.170;5.386;2023-04-03T07:56:18;5.88;;;1.55;;
70806;SDS011;58882;52.170;5.386;2023-04-03T07:59:05;4.43;;;1.58;;
70806;SDS011;58882;52.170;5.386;2023-04-03T08:01:46;5.50;;;1.40;;
70806;SDS011;58882;52.170;5.386;2023-04-03T08:04:33;4.40;;;1.30;;
70806;SDS011;58882;52.170;5.386;2023-04-03T08:07:13;5.38;;;1.65;;
70806;SDS011;58882;52.170;5.386;2023-04-03T08:10:00;4.75;;;1.45;;
70806;SDS011;58882;52.170;5.386;2023-04-03T08:12:47;4.45;;;1.40;;
70806;SDS011;58882;52.170;5.386;2023-04-03T08:15:27;6.03;;;1.40;;
70806;SDS011;58882;52.170;5.386;2023-04-03T08:18:14;5.90;;;1.45;;
70806;SDS011;58882;52.170;5.386;2023-04-03T08:20:48;2.05;;;0.98;;
70806;SDS011;58882;52.170;5.386;2023-04-03T08:23:42;3.85;;;1.20;;
70806;SDS011;58882;52.170;5.386;2023-04-03T08:26:16;4.45;;;1.17;;
70806;SDS011;58882;52.170;5.386;2023-04-03T08:29:13;3.80;;;1.27;;
70806;SDS011;58882;52.170;5.386;2023-04-03T08:31:53;4.18;;;1.30;;
70806;SDS011;58882;52.170;5.386;2023-04-03T08:34:40;4.18;;;1.27;;
70806;SDS011;58882;52.170;5.386;2023-04-03T08:37:21;5.70;;;1.45;;
70806;SDS011;58882;52.170;5.386;2023-04-03T08:40:11;5.15;;;1.30;;
70806;SDS011;58882;52.170;5.386;2023-04-03T08:46:00;2.60;;;1.10;;
70806;SDS011;58882;52.170;5.386;2023-04-03T08:48:44;4.97;;;1.33;;
70806;SDS011;58882;52.170;5.386;2023-04-03T08:51:39;3.67;;;1.15;;
70806;SDS011;58882;52.170;5.386;2023-04-03T08:54:30;4.18;;;1.13;;
70806;SDS011;58882;52.170;5.386;2023-04-03T08:57:30;2.83;;;1.10;;
70806;SDS011;58882;52.170;5.386;2023-04-03T09:00:21;2.97;;;0.90;;
70806;SDS011;58882;52.170;5.386;2023-04-03T09:03:19;4.07;;;1.10;;
70806;SDS011;58882;52.170;5.386;2023-04-03T09:06:04;3.97;;;1.10;;
70806;SDS011;58882;52.170;5.386;2023-04-03T09:09:12;3.63;;;1.10;;
70806;SDS011;58882;52.170;5.386;2023-04-03T09:15:10;4.85;;;1.20;;
70806;SDS011;58882;52.170;5.386;2023-04-03T09:18:13;3.50;;;0.90;;
70806;SDS011;58882;52.170;5.386;2023-04-03T09:21:24;2.13;;;0.80;;
70806;SDS011;58882;52.170;5.386;2023-04-03T09:24:07;4.32;;;1.08;;
70806;SDS011;58882;52.170;5.386;2023-04-03T09:27:06;2.85;;;0.85;;
70806;SDS011;58882;52.170;5.386;2023-04-03T09:29:49;1.90;;;0.88;;
70806;SDS011;58882;52.170;5.386;2023-04-03T09:32:40;2.78;;;0.90;;
70806;SDS011;58882;52.170;5.386;2023-04-03T09:38:26;1.98;;;0.65;;
70806;SDS011;58882;52.170;5.386;2023-04-03T09:41:07;1.70;;;0.73;;
70806;SDS011;58882;52.170;5.386;2023-04-03T09:44:01;1.63;;;0.68;;
70806;SDS011;58882;52.170;5.386;2023-04-03T09:46:41;2.53;;;0.70;;
70806;SDS011;58882;52.170;5.386;2023-04-03T09:49:28;3.90;;;0.70;;
70806;SDS011;58882;52.170;5.386;2023-04-03T09:52:23;2.70;;;0.70;;
70806;SDS011;58882;52.170;5.386;2023-04-03T09:55:17;1.48;;;0.60;;
70806;SDS011;58882;52.170;5.386;2023-04-03T09:58:04;4.00;;;0.90;;
70806;SDS011;58882;52.170;5.386;2023-04-03T10:01:27;2.50;;;0.65;;
70806;SDS011;58882;52.170;5.386;2023-04-03T10:04:19;1.58;;;0.63;;
70806;SDS011;58882;52.170;5.386;2023-04-03T10:07:25;1.88;;;0.40;;
70806;SDS011;58882;52.170;5.386;2023-04-03T10:13:06;0.65;;;0.52;;
70806;SDS011;58882;52.170;5.386;2023-04-03T10:16:26;1.23;;;0.70;;
70806;SDS011;58882;52.170;5.386;2023-04-03T10:19:44;1.52;;;0.68;;
70806;SDS011;58882;52.170;5.386;2023-04-03T10:25:40;1.27;;;0.47;;
70806;SDS011;58882;52.170;5.386;2023-04-03T10:28:31;1.92;;;0.70;;
70806;SDS011;58882;52.170;5.386;2023-04-03T10:31:46;1.88;;;0.75;;
70806;SDS011;58882;52.170;5.386;2023-04-03T10:34:33;1.90;;;0.70;;
70806;SDS011;58882;52.170;5.386;2023-04-03T10:40:52;2.33;;;0.60;;
70806;SDS011;58882;52.170;5.386;2023-04-03T10:46:47;3.95;;;0.52;;
70806;SDS011;58882;52.170;5.386;2023-04-03T10:50:00;1.08;;;0.60;;
70806;SDS011;58882;52.170;5.386;2023-04-03T10:58:35;1.30;;;0.60;;
70806;SDS011;58882;52.170;5.386;2023-04-03T11:01:36;1.63;;;0.50;;
70806;SDS011;58882;52.170;5.386;2023-04-03T11:04:20;1.52;;;0.60;;
70806;SDS011;58882;52.170;5.386;2023-04-03T11:07:12;2.10;;;0.70;;
70806;SDS011;58882;52.170;5.386;2023-04-03T11:10:02;3.65;;;0.85;;
70806;SDS011;58882;52.170;5.386;2023-04-03T11:12:57;2.67;;;0.60;;
70806;SDS011;58882;52.170;5.386;2023-04-03T11:15:46;2.67;;;0.75;;
70806;SDS011;58882;52.170;5.386;2023-04-03T11:18:45;2.47;;;0.68;;
70806;SDS011;58882;52.170;5.386;2023-04-03T11:21:38;2.97;;;0.65;;
70806;SDS011;58882;52.170;5.386;2023-04-03T11:24:29;2.13;;;0.80;;
70806;SDS011;58882;52.170;5.386;2023-04-03T11:27:05;2.63;;;0.73;;
70806;SDS011;58882;52.170;5.386;2023-04-03T11:30:14;2.58;;;0.80;;
70806;SDS011;58882;52.170;5.386;2023-04-03T11:36:13;1.98;;;0.63;;
70806;SDS011;58882;52.170;5.386;2023-04-03T11:42:34;3.45;;;0.88;;
70806;SDS011;58882;52.170;5.386;2023-04-03T11:45:17;2.40;;;0.70;;
70806;SDS011;58882;52.170;5.386;2023-04-03T11:51:31;2.25;;;0.70;;
70806;SDS011;58882;52.170;5.386;2023-04-03T11:54:36;1.95;;;0.80;;
70806;SDS011;58882;52.170;5.386;2023-04-03T12:00:51;2.05;;;0.65;;
70806;SDS011;58882;52.170;5.386;2023-04-03T12:12:28;2.95;;;0.80;;
70806;SDS011;58882;52.170;5.386;2023-04-03T12:27:03;2.83;;;0.90;;
70806;SDS011;58882;52.170;5.386;2023-04-03T12:36:06;2.85;;;0.80;;
70806;SDS011;58882;52.170;5.386;2023-04-03T12:39:22;1.70;;;0.88;;
70806;SDS011;58882;52.170;5.386;2023-04-03T12:43:15;1.88;;;0.70;;
70806;SDS011;58882;52.170;5.386;2023-04-03T12:45:47;3.05;;;0.80;;
70806;SDS011;58882;52.170;5.386;2023-04-03T12:48:26;2.45;;;1.00;;
70806;SDS011;58882;52.170;5.386;2023-04-03T12:54:26;1.98;;;0.75;;
70806;SDS011;58882;52.170;5.386;2023-04-03T12:57:26;2.13;;;1.00;;
70806;SDS011;58882;52.170;5.386;2023-04-03T13:03:33;3.85;;;0.80;;
70806;SDS011;58882;52.170;5.386;2023-04-03T13:06:16;2.63;;;0.88;;
70806;SDS011;58882;52.170;5.386;2023-04-03T13:09:05;2.33;;;1.00;;
70806;SDS011;58882;52.170;5.386;2023-04-03T13:12:02;2.42;;;0.85;;
70806;SDS011;58882;52.170;5.386;2023-04-03T13:15:18;2.33;;;0.80;;
70806;SDS011;58882;52.170;5.386;2023-04-03T13:17:59;3.88;;;0.90;;
70806;SDS011;58882;52.170;5.386;2023-04-03T13:20:46;3.85;;;1.10;;
70806;SDS011;58882;52.170;5.386;2023-04-03T13:23:21;1.52;;;0.80;;
70806;SDS011;58882;52.170;5.386;2023-04-03T13:26:16;2.53;;;1.00;;
70806;SDS011;58882;52.170;5.386;2023-04-03T13:28:50;2.72;;;0.90;;
70806;SDS011;58882;52.170;5.386;2023-04-03T13:31:45;3.58;;;1.10;;
70806;SDS011;58882;52.170;5.386;2023-04-03T13:34:26;2.22;;;0.80;;
70806;SDS011;58882;52.170;5.386;2023-04-03T13:37:58;1.40;;;0.80;;
70806;SDS011;58882;52.170;5.386;2023-04-03T13:40:33;2.20;;;0.88;;
70806;SDS011;58882;52.170;5.386;2023-04-03T13:43:28;3.78;;;1.00;;
70806;SDS011;58882;52.170;5.386;2023-04-03T13:49:01;4.32;;;1.00;;
70806;SDS011;58882;52.170;5.386;2023-04-03T13:52:17;3.42;;;1.13;;
70806;SDS011;58882;52.170;5.386;2023-04-03T14:06:44;3.42;;;1.08;;
70806;SDS011;58882;52.170;5.386;2023-04-03T14:09:26;4.13;;;1.17;;
70806;SDS011;58882;52.170;5.386;2023-04-03T14:12:15;3.53;;;1.10;;
70806;SDS011;58882;52.170;5.386;2023-04-03T14:18:13;3.33;;;1.20;;
70806;SDS011;58882;52.170;5.386;2023-04-03T14:20:49;4.05;;;1.00;;
70806;SDS011;58882;52.170;5.386;2023-04-03T14:23:44;2.38;;;0.90;;
70806;SDS011;58882;52.170;5.386;2023-04-03T14:26:25;3.60;;;1.10;;
70806;SDS011;58882;52.170;5.386;2023-04-03T14:29:12;3.17;;;1.25;;
70806;SDS011;58882;52.170;5.386;2023-04-03T14:31:53;6.47;;;1.10;;
70806;SDS011;58882;52.170;5.386;2023-04-03T14:34:53;2.67;;;1.05;;
70806;SDS011;58882;52.170;5.386;2023-04-03T14:37:33;2.22;;;1.00;;
70806;SDS011;58882;52.170;5.386;2023-04-03T14:40:28;3.78;;;1.17;;
70806;SDS011;58882;52.170;5.386;2023-04-03T14:43:01;3.10;;;1.10;;
70806;SDS011;58882;52.170;5.386;2023-04-03T14:45:55;3.33;;;1.02;;
70806;SDS011;58882;52.170;5.386;2023-04-03T14:48:29;2.65;;;1.00;;
70806;SDS011;58882;52.170;5.386;2023-04-03T14:51:24;3.15;;;0.90;;
70806;SDS011;58882;52.170;5.386;2023-04-03T14:54:05;3.67;;;1.15;;
70806;SDS011;58882;52.170;5.386;2023-04-03T14:56:57;4.15;;;1.10;;
70806;SDS011;58882;52.170;5.386;2023-04-03T14:59:39;2.25;;;1.00;;
70806;SDS011;58882;52.170;5.386;2023-04-03T15:02:30;2.83;;;1.27;;
70806;SDS011;58882;52.170;5.386;2023-04-03T15:05:20;5.35;;;1.20;;
70806;SDS011;58882;52.170;5.386;2023-04-03T15:08:13;4.07;;;1.10;;
70806;SDS011;58882;52.170;5.386;2023-04-03T15:10:52;4.90;;;1.10;;
70806;SDS011;58882;52.170;5.386;2023-04-03T15:13:47;4.78;;;1.20;;
70806;SDS011;58882;52.170;5.386;2023-04-03T15:16:27;5.80;;;1.30;;
70806;SDS011;58882;52.170;5.386;2023-04-03T15:19:15;5.13;;;1.13;;
70806;SDS011;58882;52.170;5.386;2023-04-03T15:21:49;4.45;;;1.20;;
70806;SDS011;58882;52.170;5.386;2023-04-03T15:24:43;3.33;;;1.10;;
70806;SDS011;58882;52.170;5.386;2023-04-03T15:27:23;4.28;;;1.05;;
70806;SDS011;58882;52.170;5.386;2023-04-03T15:30:14;5.35;;;1.30;;
70806;SDS011;58882;52.170;5.386;2023-04-03T15:35:43;5.53;;;1.30;;
70806;SDS011;58882;52.170;5.386;2023-04-03T15:38:23;4.05;;;1.30;;
70806;SDS011;58882;52.170;5.386;2023-04-03T15:41:10;3.42;;;1.15;;
70806;SDS011;58882;52.170;5.386;2023-04-03T15:43:50;5.00;;;1.60;;
70806;SDS011;58882;52.170;5.386;2023-04-03T15:46:37;3.53;;;1.40;;
70806;SDS011;58882;52.170;5.386;2023-04-03T15:49:18;3.60;;;1.23;;
70806;SDS011;58882;52.170;5.386;2023-04-03T15:52:07;3.42;;;1.13;;
70806;SDS011;58882;52.170;5.386;2023-04-03T15:54:47;4.25;;;1.30;;
70806;SDS011;58882;52.170;5.386;2023-04-03T15:57:34;2.70;;;1.10;;
70806;SDS011;58882;52.170;5.386;2023-04-03T16:00:14;5.38;;;1.30;;
70806;SDS011;58882;52.170;5.386;2023-04-03T16:03:07;4.03;;;1.10;;
70806;SDS011;58882;52.170;5.386;2023-04-03T16:05:50;3.65;;;1.20;;
70806;SDS011;58882;52.170;5.386;2023-04-03T16:11:25;3.85;;;1.10;;
70806;SDS011;58882;52.170;5.386;2023-04-03T16:14:12;4.50;;;1.30;;
70806;SDS011;58882;52.170;5.386;2023-04-03T16:16:52;3.53;;;1.10;;
70806;SDS011;58882;52.170;5.386;2023-04-03T16:19:46;3.15;;;0.90;;
70806;SDS011;58882;52.170;5.386;2023-04-03T16:25:17;4.53;;;1.20;;
70806;SDS011;58882;52.170;5.386;2023-04-03T16:28:12;4.53;;;1.10;;
70806;SDS011;58882;52.170;5.386;2023-04-03T16:30:53;4.95;;;1.30;;
70806;SDS011;58882;52.170;5.386;2023-04-03T16:33:40;3.17;;;1.20;;
70806;SDS011;58882;52.170;5.386;2023-04-03T16:36:20;4.22;;;1.10;;
70806;SDS011;58882;52.170;5.386;2023-04-03T16:39:07;3.67;;;1.13;;
70806;SDS011;58882;52.170;5.386;2023-04-03T17:03:03;3.53;;;1.23;;
70806;SDS011;58882;52.170;5.386;2023-04-03T17:05:57;4.57;;;1.13;;
70806;SDS011;58882;52.170;5.386;2023-04-03T17:08:37;3.22;;;1.15;;
70806;SDS011;58882;52.170;5.386;2023-04-03T17:11:34;4.97;;;1.10;;
70806;SDS011;58882;52.170;5.386;2023-04-03T17:17:03;4.05;;;1.20;;
